sensor_id;sensor_type;location;lat;lon;timestamp;pressure;altitude;pressure_sealevel;temperature;humidity
21956;BME280;11142;49.930;8.606;2023-07-09T00:01:46;100324.41;;;22.59;100.00
21956;BME280;11142;49.930;8.606;2023-07-09T00:04:14;100319.94;;;22.59;100.00
21956;BME280;11142;49.930;8.606;2023-07-09T00:06:43;100325.41;;;22.50;100.00
21956;BME280;11142;49.930;8.606;2023-07-09T00:09:15;100330.22;;;22.46;100.00
21956;BME280;11142;49.930;8.606;2023-07-09T00:11:43;100326.41;;;22.41;100.00
21956;BME280;11142;49.930;8.606;2023-07-09T00:14:13;100335.16;;;22.49;100.00
21956;BME280;11142;49.930;8.606;2023-07-09T00:16:46;100347.03;;;22.61;100.00
21956;BME280;11142;49.930;8.606;2023-07-09T00:19:16;100341.59;;;22.79;100.00
21956;BME280;11142;49.930;8.606;2023-07-09T00:21:48;100340.72;;;22.95;100.00
21956;BME280;11142;49.930;8.606;2023-07-09T00:24:18;100353.13;;;22.94;100.00
21956;BME280;11142;49.930;8.606;2023-07-09T00:26:49;100347.16;;;23.00;100.00
21956;BME280;11142;49.930;8.606;2023-07-09T00:29:20;100357.25;;;22.97;100.00
21956;BME280;11142;49.930;8.606;2023-07-09T00:31:53;100364.41;;;22.56;100.00
21956;BME280;11142;49.930;8.606;2023-07-09T00:34:22;100357.31;;;21.92;100.00
21956;BME280;11142;49.930;8.606;2023-07-09T00:36:51;100349.88;;;21.95;100.00
21956;BME280;11142;49.930;8.606;2023-07-09T00:39:21;100358.63;;;21.96;100.00
21956;BME280;11142;49.930;8.606;2023-07-09T00:41:50;100355.00;;;21.97;100.00
21956;BME280;11142;49.930;8.606;2023-07-09T00:44:30;100353.81;;;21.75;100.00
21956;BME280;11142;49.930;8.606;2023-07-09T00:47:14;100356.06;;;21.62;100.00
21956;BME280;11142;49.930;8.606;2023-07-09T00:49:46;100358.75;;;21.78;100.00
21956;BME280;11142;49.930;8.606;2023-07-09T00:52:20;100363.00;;;21.63;100.00
21956;BME280;11142;49.930;8.606;2023-07-09T00:54:50;100360.72;;;21.68;100.00
21956;BME280;11142;49.930;8.606;2023-07-09T00:57:23;100358.91;;;21.68;100.00
21956;BME280;11142;49.930;8.606;2023-07-09T00:59:53;100361.38;;;21.70;100.00
21956;BME280;11142;49.930;8.606;2023-07-09T01:02:27;100360.38;;;21.79;100.00
21956;BME280;11142;49.930;8.606;2023-07-09T01:04:57;100359.41;;;21.72;100.00
21956;BME280;11142;49.930;8.606;2023-07-09T01:07:29;100370.31;;;21.77;100.00
21956;BME280;11142;49.930;8.606;2023-07-09T01:09:57;100370.31;;;21.85;100.00
21956;BME280;11142;49.930;8.606;2023-07-09T01:12:26;100367.72;;;21.93;100.00
21956;BME280;11142;49.930;8.606;2023-07-09T01:14:55;100367.41;;;21.96;100.00
21956;BME280;11142;49.930;8.606;2023-07-09T01:17:28;100367.06;;;21.91;100.00
21956;BME280;11142;49.930;8.606;2023-07-09T01:19:56;100368.16;;;21.81;100.00
21956;BME280;11142;49.930;8.606;2023-07-09T01:22:26;100370.94;;;21.71;100.00
21956;BME280;11142;49.930;8.606;2023-07-09T01:24:58;100367.16;;;21.65;100.00
21956;BME280;11142;49.930;8.606;2023-07-09T01:27:29;100367.78;;;21.59;100.00
21956;BME280;11142;49.930;8.606;2023-07-09T01:30:00;100366.47;;;21.55;100.00
21956;BME280;11142;49.930;8.606;2023-07-09T01:32:29;100371.22;;;21.52;100.00
21956;BME280;11142;49.930;8.606;2023-07-09T01:34:58;100370.22;;;21.45;100.00
21956;BME280;11142;49.930;8.606;2023-07-09T01:37:33;100370.91;;;21.47;100.00
21956;BME280;11142;49.930;8.606;2023-07-09T01:40:03;100365.25;;;21.42;100.00
21956;BME280;11142;49.930;8.606;2023-07-09T01:42:46;100369.69;;;21.41;100.00
21956;BME280;11142;49.930;8.606;2023-07-09T01:45:14;100376.66;;;21.42;100.00
21956;BME280;11142;49.930;8.606;2023-07-09T01:47:43;100375.81;;;21.42;100.00
21956;BME280;11142;49.930;8.606;2023-07-09T01:50:12;100375.81;;;21.42;100.00
21956;BME280;11142;49.930;8.606;2023-07-09T01:52:44;100368.66;;;21.34;100.00
21956;BME280;11142;49.930;8.606;2023-07-09T01:55:16;100368.84;;;21.33;100.00
21956;BME280;11142;49.930;8.606;2023-07-09T01:57:45;100379.44;;;21.41;100.00
21956;BME280;11142;49.930;8.606;2023-07-09T02:00:15;100379.09;;;21.36;100.00
21956;BME280;11142;49.930;8.606;2023-07-09T02:02:47;100376.91;;;21.23;100.00
21956;BME280;11142;49.930;8.606;2023-07-09T02:05:18;100374.72;;;21.18;100.00
21956;BME280;11142;49.930;8.606;2023-07-09T02:07:49;100377.34;;;21.18;100.00
21956;BME280;11142;49.930;8.606;2023-07-09T02:10:17;100376.91;;;21.23;100.00
21956;BME280;11142;49.930;8.606;2023-07-09T02:12:45;100377.88;;;21.22;100.00
21956;BME280;11142;49.930;8.606;2023-07-09T02:15:15;100377.22;;;21.20;100.00
21956;BME280;11142;49.930;8.606;2023-07-09T02:17:43;100383.63;;;21.17;100.00
21956;BME280;11142;49.930;8.606;2023-07-09T02:20:12;100387.25;;;21.16;100.00
21956;BME280;11142;49.930;8.606;2023-07-09T02:22:42;100383.13;;;21.14;100.00
21956;BME280;11142;49.930;8.606;2023-07-09T02:25:12;100382.28;;;21.13;100.00
21956;BME280;11142;49.930;8.606;2023-07-09T02:27:40;100383.97;;;21.14;100.00
21956;BME280;11142;49.930;8.606;2023-07-09T02:30:08;100382.75;;;21.09;100.00
21956;BME280;11142;49.930;8.606;2023-07-09T02:32:37;100380.47;;;21.14;100.00
21956;BME280;11142;49.930;8.606;2023-07-09T02:35:06;100386.22;;;21.09;100.00
21956;BME280;11142;49.930;8.606;2023-07-09T02:37:35;100393.91;;;21.03;100.00
21956;BME280;11142;49.930;8.606;2023-07-09T02:40:04;100390.09;;;20.97;100.00
21956;BME280;11142;49.930;8.606;2023-07-09T02:42:35;100387.25;;;20.91;100.00
21956;BME280;11142;49.930;8.606;2023-07-09T02:45:03;100399.91;;;20.87;100.00
21956;BME280;11142;49.930;8.606;2023-07-09T02:47:32;100395.13;;;20.83;100.00
21956;BME280;11142;49.930;8.606;2023-07-09T02:50:02;100389.84;;;20.83;100.00
21956;BME280;11142;49.930;8.606;2023-07-09T02:52:30;100390.31;;;20.78;100.00
21956;BME280;11142;49.930;8.606;2023-07-09T02:54:58;100389.94;;;20.73;100.00
21956;BME280;11142;49.930;8.606;2023-07-09T02:57:27;100390.41;;;20.68;100.00
21956;BME280;11142;49.930;8.606;2023-07-09T02:59:56;100384.41;;;20.84;100.00
21956;BME280;11142;49.930;8.606;2023-07-09T03:02:24;100385.59;;;20.90;100.00
21956;BME280;11142;49.930;8.606;2023-07-09T03:04:53;100394.22;;;20.74;100.00
21956;BME280;11142;49.930;8.606;2023-07-09T03:07:21;100394.41;;;20.55;100.00
21956;BME280;11142;49.930;8.606;2023-07-09T03:09:50;100395.09;;;20.57;100.00
21956;BME280;11142;49.930;8.606;2023-07-09T03:12:18;100405.66;;;20.57;100.00
21956;BME280;11142;49.930;8.606;2023-07-09T03:14:47;100406.19;;;20.60;100.00
21956;BME280;11142;49.930;8.606;2023-07-09T03:17:17;100406.94;;;20.53;100.00
21956;BME280;11142;49.930;8.606;2023-07-09T03:19:45;100409.03;;;20.49;100.00
21956;BME280;11142;49.930;8.606;2023-07-09T03:22:16;100405.53;;;20.41;100.00
21956;BME280;11142;49.930;8.606;2023-07-09T03:24:44;100409.00;;;20.41;100.00
21956;BME280;11142;49.930;8.606;2023-07-09T03:27:12;100408.28;;;20.39;100.00
21956;BME280;11142;49.930;8.606;2023-07-09T03:29:40;100410.28;;;20.37;100.00
21956;BME280;11142;49.930;8.606;2023-07-09T03:32:08;100412.06;;;20.37;100.00
21956;BME280;11142;49.930;8.606;2023-07-09T03:34:38;100410.88;;;20.31;100.00
21956;BME280;11142;49.930;8.606;2023-07-09T03:37:06;100425.34;;;20.27;100.00
21956;BME280;11142;49.930;8.606;2023-07-09T03:39:34;100416.44;;;20.28;100.00
21956;BME280;11142;49.930;8.606;2023-07-09T03:42:02;100428.19;;;20.34;100.00
21956;BME280;11142;49.930;8.606;2023-07-09T03:44:30;100426.31;;;20.44;100.00
21956;BME280;11142;49.930;8.606;2023-07-09T03:46:58;100428.69;;;20.55;100.00
21956;BME280;11142;49.930;8.606;2023-07-09T03:49:27;100439.16;;;20.64;100.00
21956;BME280;11142;49.930;8.606;2023-07-09T03:51:57;100438.75;;;20.77;100.00
21956;BME280;11142;49.930;8.606;2023-07-09T03:54:25;100438.84;;;20.85;100.00
21956;BME280;11142;49.930;8.606;2023-07-09T03:56:53;100440.03;;;20.91;100.00
21956;BME280;11142;49.930;8.606;2023-07-09T03:59:21;100437.75;;;20.96;100.00
21956;BME280;11142;49.930;8.606;2023-07-09T04:01:49;100436.00;;;21.04;100.00
21956;BME280;11142;49.930;8.606;2023-07-09T04:04:18;100427.38;;;21.20;100.00
21956;BME280;11142;49.930;8.606;2023-07-09T04:06:47;100433.75;;;21.43;100.00
21956;BME280;11142;49.930;8.606;2023-07-09T04:09:17;100445.41;;;21.66;100.00
21956;BME280;11142;49.930;8.606;2023-07-09T04:11:45;100444.06;;;21.96;100.00
21956;BME280;11142;49.930;8.606;2023-07-09T04:14:13;100442.78;;;22.24;100.00
21956;BME280;11142;49.930;8.606;2023-07-09T04:16:41;100445.44;;;22.41;100.00
21956;BME280;11142;49.930;8.606;2023-07-09T04:19:09;100444.78;;;22.39;100.00
21956;BME280;11142;49.930;8.606;2023-07-09T04:21:37;100448.91;;;22.25;100.00
21956;BME280;11142;49.930;8.606;2023-07-09T04:24:06;100448.44;;;22.54;100.00
21956;BME280;11142;49.930;8.606;2023-07-09T04:26:35;100453.41;;;22.73;100.00
21956;BME280;11142;49.930;8.606;2023-07-09T04:29:05;100458.22;;;22.86;100.00
21956;BME280;11142;49.930;8.606;2023-07-09T04:31:33;100455.03;;;23.06;100.00
21956;BME280;11142;49.930;8.606;2023-07-09T04:34:02;100458.97;;;23.18;100.00
21956;BME280;11142;49.930;8.606;2023-07-09T04:36:30;100457.28;;;23.34;100.00
21956;BME280;11142;49.930;8.606;2023-07-09T04:38:59;100451.44;;;23.54;100.00
21956;BME280;11142;49.930;8.606;2023-07-09T04:41:27;100447.53;;;23.81;100.00
21956;BME280;11142;49.930;8.606;2023-07-09T04:43:57;100452.00;;;24.11;100.00
21956;BME280;11142;49.930;8.606;2023-07-09T04:46:25;100448.53;;;24.33;99.33
21956;BME280;11142;49.930;8.606;2023-07-09T04:48:54;100452.03;;;24.57;97.80
21956;BME280;11142;49.930;8.606;2023-07-09T04:51:22;100448.56;;;24.94;91.50
21956;BME280;11142;49.930;8.606;2023-07-09T04:53:51;100457.75;;;25.35;87.72
21956;BME280;11142;49.930;8.606;2023-07-09T04:56:19;100444.19;;;25.59;85.77
21956;BME280;11142;49.930;8.606;2023-07-09T04:58:47;100444.06;;;25.82;83.68
21956;BME280;11142;49.930;8.606;2023-07-09T05:01:17;100448.63;;;26.03;82.77
21956;BME280;11142;49.930;8.606;2023-07-09T05:03:45;100457.66;;;26.08;81.92
21956;BME280;11142;49.930;8.606;2023-07-09T05:06:13;100454.00;;;26.09;83.42
21956;BME280;11142;49.930;8.606;2023-07-09T05:08:42;100450.00;;;26.34;80.62
21956;BME280;11142;49.930;8.606;2023-07-09T05:11:09;100453.78;;;26.68;77.66
21956;BME280;11142;49.930;8.606;2023-07-09T05:13:38;100453.47;;;27.05;76.92
21956;BME280;11142;49.930;8.606;2023-07-09T05:16:06;100452.97;;;27.57;74.09
21956;BME280;11142;49.930;8.606;2023-07-09T05:18:36;100461.28;;;27.82;72.04
21956;BME280;11142;49.930;8.606;2023-07-09T05:21:04;100455.56;;;27.91;72.00
21956;BME280;11142;49.930;8.606;2023-07-09T05:23:32;100457.47;;;28.04;70.28
21956;BME280;11142;49.930;8.606;2023-07-09T05:26:01;100457.97;;;28.27;68.95
21956;BME280;11142;49.930;8.606;2023-07-09T05:28:30;100453.91;;;28.71;67.83
21956;BME280;11142;49.930;8.606;2023-07-09T05:30:59;100462.91;;;29.16;65.16
21956;BME280;11142;49.930;8.606;2023-07-09T05:33:27;100467.44;;;29.28;63.82
21956;BME280;11142;49.930;8.606;2023-07-09T05:35:56;100466.84;;;29.13;63.75
21956;BME280;11142;49.930;8.606;2023-07-09T05:38:24;100461.28;;;29.08;64.12
21956;BME280;11142;49.930;8.606;2023-07-09T05:40:59;100461.94;;;28.97;65.52
21956;BME280;11142;49.930;8.606;2023-07-09T05:43:27;100456.78;;;28.95;65.95
21956;BME280;11142;49.930;8.606;2023-07-09T05:45:55;100460.22;;;29.42;64.86
21956;BME280;11142;49.930;8.606;2023-07-09T05:48:24;100453.13;;;29.67;62.60
21956;BME280;11142;49.930;8.606;2023-07-09T05:50:52;100461.19;;;30.12;61.77
21956;BME280;11142;49.930;8.606;2023-07-09T05:53:22;100465.69;;;30.49;59.78
21956;BME280;11142;49.930;8.606;2023-07-09T05:55:52;100464.72;;;30.93;57.61
21956;BME280;11142;49.930;8.606;2023-07-09T05:58:20;100473.94;;;31.40;55.20
21956;BME280;11142;49.930;8.606;2023-07-09T06:00:49;100474.88;;;32.00;53.63
21956;BME280;11142;49.930;8.606;2023-07-09T06:03:20;100479.00;;;32.21;52.44
21956;BME280;11142;49.930;8.606;2023-07-09T06:05:49;100480.09;;;32.43;51.60
21956;BME280;11142;49.930;8.606;2023-07-09T06:08:18;100484.13;;;32.63;50.94
21956;BME280;11142;49.930;8.606;2023-07-09T06:10:51;100481.69;;;32.62;50.36
21956;BME280;11142;49.930;8.606;2023-07-09T06:13:19;100487.69;;;32.34;51.39
21956;BME280;11142;49.930;8.606;2023-07-09T06:15:48;100480.75;;;32.56;51.18
21956;BME280;11142;49.930;8.606;2023-07-09T06:18:16;100485.00;;;32.87;50.22
21956;BME280;11142;49.930;8.606;2023-07-09T06:20:46;100486.88;;;33.33;48.15
21956;BME280;11142;49.930;8.606;2023-07-09T06:23:14;100484.88;;;33.63;47.55
21956;BME280;11142;49.930;8.606;2023-07-09T06:25:42;100493.25;;;33.79;46.53
21956;BME280;11142;49.930;8.606;2023-07-09T06:28:12;100488.03;;;34.12;45.75
21956;BME280;11142;49.930;8.606;2023-07-09T06:30:39;100489.88;;;34.56;43.99
21956;BME280;11142;49.930;8.606;2023-07-09T06:33:08;100494.97;;;34.86;43.59
21956;BME280;11142;49.930;8.606;2023-07-09T06:35:37;100491.84;;;35.11;41.40
21956;BME280;11142;49.930;8.606;2023-07-09T06:38:16;100499.06;;;35.60;40.92
21956;BME280;11142;49.930;8.606;2023-07-09T06:43:42;100503.00;;;35.96;40.05
21956;BME280;11142;49.930;8.606;2023-07-09T06:46:11;100503.88;;;36.29;39.37
21956;BME280;11142;49.930;8.606;2023-07-09T06:48:40;100499.28;;;35.81;38.79
21956;BME280;11142;49.930;8.606;2023-07-09T06:51:08;100500.44;;;34.01;42.98
21956;BME280;11142;49.930;8.606;2023-07-09T06:53:37;100488.72;;;32.63;45.37
21956;BME280;11142;49.930;8.606;2023-07-09T06:56:05;100498.44;;;32.87;47.29
21956;BME280;11142;49.930;8.606;2023-07-09T06:58:35;100500.63;;;33.83;43.66
21956;BME280;11142;49.930;8.606;2023-07-09T07:01:05;100500.00;;;32.12;47.83
21956;BME280;11142;49.930;8.606;2023-07-09T07:03:33;100493.56;;;31.40;52.62
21956;BME280;11142;49.930;8.606;2023-07-09T07:06:01;100501.00;;;32.71;49.35
21956;BME280;11142;49.930;8.606;2023-07-09T07:08:30;100497.41;;;34.26;45.45
21956;BME280;11142;49.930;8.606;2023-07-09T07:10:59;100501.00;;;34.77;42.08
21956;BME280;11142;49.930;8.606;2023-07-09T07:13:29;100497.28;;;30.72;53.69
21956;BME280;11142;49.930;8.606;2023-07-09T07:15:57;100493.44;;;29.72;57.66
21956;BME280;11142;49.930;8.606;2023-07-09T07:18:27;100493.09;;;31.07;56.33
21956;BME280;11142;49.930;8.606;2023-07-09T07:20:55;100491.78;;;32.48;50.29
21956;BME280;11142;49.930;8.606;2023-07-09T07:23:22;100480.63;;;31.55;53.64
21956;BME280;11142;49.930;8.606;2023-07-09T07:25:50;100488.03;;;33.49;48.88
21956;BME280;11142;49.930;8.606;2023-07-09T07:28:18;100488.91;;;33.89;45.92
21956;BME280;11142;49.930;8.606;2023-07-09T07:30:46;100489.38;;;34.43;44.76
21956;BME280;11142;49.930;8.606;2023-07-09T07:33:14;100487.56;;;35.97;42.05
21956;BME280;11142;49.930;8.606;2023-07-09T07:35:44;100487.56;;;37.14;37.59
21956;BME280;11142;49.930;8.606;2023-07-09T07:38:32;100496.69;;;38.22;36.69
21956;BME280;11142;49.930;8.606;2023-07-09T07:41:00;100489.88;;;39.41;33.97
21956;BME280;11142;49.930;8.606;2023-07-09T07:43:28;100488.97;;;37.78;34.35
21956;BME280;11142;49.930;8.606;2023-07-09T07:45:56;100488.06;;;37.53;36.62
21956;BME280;11142;49.930;8.606;2023-07-09T07:48:23;100490.53;;;37.54;36.43
21956;BME280;11142;49.930;8.606;2023-07-09T07:50:54;100488.03;;;39.11;33.78
21956;BME280;11142;49.930;8.606;2023-07-09T07:53:25;100492.50;;;40.59;31.74
21956;BME280;11142;49.930;8.606;2023-07-09T07:55:56;100495.13;;;41.50;29.92
21956;BME280;11142;49.930;8.606;2023-07-09T08:04:15;100502.59;;;42.75;27.22
21956;BME280;11142;49.930;8.606;2023-07-09T08:09:48;100481.66;;;39.61;30.29
21956;BME280;11142;49.930;8.606;2023-07-09T08:12:16;100485.22;;;40.10;29.43
21956;BME280;11142;49.930;8.606;2023-07-09T08:14:44;100494.72;;;41.62;28.60
21956;BME280;11142;49.930;8.606;2023-07-09T08:31:54;100477.75;;;39.03;31.08
21956;BME280;11142;49.930;8.606;2023-07-09T08:34:21;100464.53;;;35.89;35.37
21956;BME280;11142;49.930;8.606;2023-07-09T08:36:49;100476.50;;;37.67;34.24
21956;BME280;11142;49.930;8.606;2023-07-09T08:39:18;100471.97;;;39.35;29.85
21956;BME280;11142;49.930;8.606;2023-07-09T08:41:46;100465.19;;;39.27;30.39
21956;BME280;11142;49.930;8.606;2023-07-09T08:44:28;100462.13;;;39.49;30.27
21956;BME280;11142;49.930;8.606;2023-07-09T08:47:05;100473.91;;;42.08;27.53
21956;BME280;11142;49.930;8.606;2023-07-09T08:49:37;100479.09;;;42.61;26.42
21956;BME280;11142;49.930;8.606;2023-07-09T08:55:03;100471.78;;;38.70;30.53
21956;BME280;11142;49.930;8.606;2023-07-09T08:57:34;100459.56;;;36.56;34.50
21956;BME280;11142;49.930;8.606;2023-07-09T09:00:05;100459.50;;;35.98;36.75
21956;BME280;11142;49.930;8.606;2023-07-09T09:02:36;100455.75;;;36.94;36.01
21956;BME280;11142;49.930;8.606;2023-07-09T09:05:08;100457.59;;;39.19;31.23
21956;BME280;11142;49.930;8.606;2023-07-09T09:07:39;100464.78;;;40.18;31.11
21956;BME280;11142;49.930;8.606;2023-07-09T09:10:11;100465.81;;;38.73;31.09
21956;BME280;11142;49.930;8.606;2023-07-09T09:12:43;100462.00;;;38.95;31.25
21956;BME280;11142;49.930;8.606;2023-07-09T09:15:17;100457.16;;;38.82;31.99
21956;BME280;11142;49.930;8.606;2023-07-09T09:17:48;100470.41;;;40.65;30.27
21956;BME280;11142;49.930;8.606;2023-07-09T09:20:20;100468.16;;;39.41;30.82
21956;BME280;11142;49.930;8.606;2023-07-09T09:22:50;100460.34;;;37.36;35.46
21956;BME280;11142;49.930;8.606;2023-07-09T09:25:21;100458.19;;;38.75;31.27
21956;BME280;11142;49.930;8.606;2023-07-09T09:27:51;100452.22;;;38.28;33.45
21956;BME280;11142;49.930;8.606;2023-07-09T09:30:19;100450.88;;;36.91;33.97
21956;BME280;11142;49.930;8.606;2023-07-09T09:32:50;100449.81;;;36.60;36.01
21956;BME280;11142;49.930;8.606;2023-07-09T09:35:25;100453.56;;;38.15;33.92
21956;BME280;11142;49.930;8.606;2023-07-09T09:37:55;100457.91;;;38.01;34.36
21956;BME280;11142;49.930;8.606;2023-07-09T09:40:24;100460.53;;;39.97;31.78
21956;BME280;11142;49.930;8.606;2023-07-09T10:09:52;100460.09;;;42.00;27.57
21956;BME280;11142;49.930;8.606;2023-07-09T10:12:32;100456.44;;;42.60;26.91
21956;BME280;11142;49.930;8.606;2023-07-09T10:15:05;100451.56;;;43.03;26.15
21956;BME280;11142;49.930;8.606;2023-07-09T10:17:39;100445.03;;;42.40;27.06
21956;BME280;11142;49.930;8.606;2023-07-09T10:20:16;100444.53;;;42.83;25.53
21956;BME280;11142;49.930;8.606;2023-07-09T10:22:48;100447.56;;;42.82;26.67
21956;BME280;11142;49.930;8.606;2023-07-09T10:25:23;100443.13;;;42.86;26.19
21956;BME280;11142;49.930;8.606;2023-07-09T13:53:46;100228.81;;;50.19;15.27
21956;BME280;11142;49.930;8.606;2023-07-09T13:56:14;100239.59;;;53.35;12.79
21956;BME280;11142;49.930;8.606;2023-07-09T13:58:42;100245.88;;;54.64;12.02
21956;BME280;11142;49.930;8.606;2023-07-09T14:01:10;100248.00;;;54.95;11.68
21956;BME280;11142;49.930;8.606;2023-07-09T14:03:39;100243.41;;;55.74;11.45
21956;BME280;11142;49.930;8.606;2023-07-09T14:06:08;100254.41;;;57.63;10.15
21956;BME280;11142;49.930;8.606;2023-07-09T14:08:36;100251.34;;;58.73;9.79
21956;BME280;11142;49.930;8.606;2023-07-09T16:58:14;100126.88;;;38.62;23.31
21956;BME280;11142;49.930;8.606;2023-07-09T17:00:45;100121.69;;;38.65;23.01
21956;BME280;11142;49.930;8.606;2023-07-09T17:03:14;100127.00;;;38.86;22.85
21956;BME280;11142;49.930;8.606;2023-07-09T17:05:42;100128.53;;;37.68;25.75
21956;BME280;11142;49.930;8.606;2023-07-09T17:08:11;100125.63;;;35.80;28.69
21956;BME280;11142;49.930;8.606;2023-07-09T17:10:40;100115.47;;;34.97;30.73
21956;BME280;11142;49.930;8.606;2023-07-09T17:13:12;100108.75;;;34.24;32.50
21956;BME280;11142;49.930;8.606;2023-07-09T17:15:44;100103.38;;;34.07;33.17
21956;BME280;11142;49.930;8.606;2023-07-09T17:18:16;100098.19;;;34.23;33.62
21956;BME280;11142;49.930;8.606;2023-07-09T17:20:45;100098.47;;;34.21;34.53
21956;BME280;11142;49.930;8.606;2023-07-09T17:23:15;100107.31;;;34.00;34.99
21956;BME280;11142;49.930;8.606;2023-07-09T17:25:43;100112.63;;;34.11;34.91
21956;BME280;11142;49.930;8.606;2023-07-09T17:28:14;100120.09;;;33.88;35.82
21956;BME280;11142;49.930;8.606;2023-07-09T17:30:45;100121.03;;;33.77;36.20
21956;BME280;11142;49.930;8.606;2023-07-09T17:33:14;100111.94;;;33.49;37.39
21956;BME280;11142;49.930;8.606;2023-07-09T17:35:42;100110.66;;;33.35;37.01
21956;BME280;11142;49.930;8.606;2023-07-09T17:38:12;100114.56;;;33.28;37.43
21956;BME280;11142;49.930;8.606;2023-07-09T17:40:41;100115.16;;;32.85;38.86
21956;BME280;11142;49.930;8.606;2023-07-09T17:43:11;100117.81;;;32.68;40.07
21956;BME280;11142;49.930;8.606;2023-07-09T17:45:40;100114.81;;;32.41;41.12
21956;BME280;11142;49.930;8.606;2023-07-09T17:48:14;100119.97;;;32.43;41.39
21956;BME280;11142;49.930;8.606;2023-07-09T17:50:42;100116.81;;;32.06;42.73
21956;BME280;11142;49.930;8.606;2023-07-09T17:53:14;100125.09;;;32.04;43.69
21956;BME280;11142;49.930;8.606;2023-07-09T17:55:42;100128.00;;;32.15;43.65
21956;BME280;11142;49.930;8.606;2023-07-09T17:58:13;100123.88;;;32.24;44.04
21956;BME280;11142;49.930;8.606;2023-07-09T18:00:43;100123.78;;;32.19;44.02
21956;BME280;11142;49.930;8.606;2023-07-09T18:03:11;100123.34;;;31.87;45.10
21956;BME280;11142;49.930;8.606;2023-07-09T18:05:42;100129.41;;;31.71;45.84
21956;BME280;11142;49.930;8.606;2023-07-09T18:08:11;100133.72;;;31.72;46.18
21956;BME280;11142;49.930;8.606;2023-07-09T18:10:40;100124.63;;;31.73;46.77
21956;BME280;11142;49.930;8.606;2023-07-09T18:13:09;100121.13;;;31.72;46.56
21956;BME280;11142;49.930;8.606;2023-07-09T18:15:38;100121.00;;;31.55;47.40
21956;BME280;11142;49.930;8.606;2023-07-09T18:18:08;100134.16;;;31.45;47.71
21956;BME280;11142;49.930;8.606;2023-07-09T18:20:37;100128.88;;;31.27;48.66
21956;BME280;11142;49.930;8.606;2023-07-09T18:23:07;100126.50;;;31.08;49.78
21956;BME280;11142;49.930;8.606;2023-07-09T18:25:36;100128.38;;;31.07;49.93
21956;BME280;11142;49.930;8.606;2023-07-09T18:28:05;100121.72;;;31.10;50.02
21956;BME280;11142;49.930;8.606;2023-07-09T18:30:35;100123.84;;;31.19;50.30
21956;BME280;11142;49.930;8.606;2023-07-09T18:33:03;100117.00;;;31.35;50.18
21956;BME280;11142;49.930;8.606;2023-07-09T18:35:33;100118.53;;;31.42;50.05
21956;BME280;11142;49.930;8.606;2023-07-09T18:38:03;100118.69;;;31.71;49.17
21956;BME280;11142;49.930;8.606;2023-07-09T18:40:35;100116.22;;;31.81;48.41
21956;BME280;11142;49.930;8.606;2023-07-09T18:43:08;100118.28;;;31.90;47.99
21956;BME280;11142;49.930;8.606;2023-07-09T18:45:56;100127.19;;;31.79;48.68
21956;BME280;11142;49.930;8.606;2023-07-09T18:48:24;100122.41;;;31.93;48.57
21956;BME280;11142;49.930;8.606;2023-07-09T18:50:55;100126.97;;;31.81;49.53
21956;BME280;11142;49.930;8.606;2023-07-09T18:53:24;100119.47;;;31.59;50.11
21956;BME280;11142;49.930;8.606;2023-07-09T18:55:55;100121.16;;;31.19;51.56
21956;BME280;11142;49.930;8.606;2023-07-09T18:58:25;100123.19;;;31.35;50.87
21956;BME280;11142;49.930;8.606;2023-07-09T19:00:53;100127.53;;;31.59;48.74
21956;BME280;11142;49.930;8.606;2023-07-09T19:03:23;100121.34;;;31.59;49.67
21956;BME280;11142;49.930;8.606;2023-07-09T19:05:54;100123.41;;;31.34;50.67
21956;BME280;11142;49.930;8.606;2023-07-09T19:08:24;100121.94;;;31.08;51.12
21956;BME280;11142;49.930;8.606;2023-07-09T19:10:52;100126.63;;;31.13;51.79
21956;BME280;11142;49.930;8.606;2023-07-09T19:13:22;100124.41;;;31.21;51.38
21956;BME280;11142;49.930;8.606;2023-07-09T19:15:51;100133.38;;;31.15;52.41
21956;BME280;11142;49.930;8.606;2023-07-09T19:18:20;100135.72;;;31.12;52.46
21956;BME280;11142;49.930;8.606;2023-07-09T19:20:50;100138.00;;;30.96;53.58
21956;BME280;11142;49.930;8.606;2023-07-09T19:23:18;100144.25;;;30.90;54.38
21956;BME280;11142;49.930;8.606;2023-07-09T19:25:48;100146.81;;;30.85;54.27
21956;BME280;11142;49.930;8.606;2023-07-09T19:28:21;100145.44;;;30.65;55.11
21956;BME280;11142;49.930;8.606;2023-07-09T19:30:50;100153.50;;;30.46;55.11
21956;BME280;11142;49.930;8.606;2023-07-09T19:33:29;100158.03;;;30.28;56.61
21956;BME280;11142;49.930;8.606;2023-07-09T19:35:58;100160.91;;;30.26;56.78
21956;BME280;11142;49.930;8.606;2023-07-09T19:38:26;100157.13;;;30.16;57.21
21956;BME280;11142;49.930;8.606;2023-07-09T19:40:57;100163.13;;;30.11;57.10
21956;BME280;11142;49.930;8.606;2023-07-09T19:43:26;100161.63;;;29.97;57.73
21956;BME280;11142;49.930;8.606;2023-07-09T19:45:54;100164.09;;;29.98;58.14
21956;BME280;11142;49.930;8.606;2023-07-09T19:48:23;100161.63;;;29.97;58.51
21956;BME280;11142;49.930;8.606;2023-07-09T19:50:54;100159.91;;;29.84;58.28
21956;BME280;11142;49.930;8.606;2023-07-09T19:53:22;100157.03;;;29.79;59.72
21956;BME280;11142;49.930;8.606;2023-07-09T19:55:54;100152.59;;;29.48;61.16
21956;BME280;11142;49.930;8.606;2023-07-09T19:58:23;100155.16;;;29.30;62.84
21956;BME280;11142;49.930;8.606;2023-07-09T20:00:52;100152.22;;;29.07;63.69
21956;BME280;11142;49.930;8.606;2023-07-09T20:03:23;100157.66;;;28.94;64.38
21956;BME280;11142;49.930;8.606;2023-07-09T20:05:52;100158.09;;;28.91;64.84
21956;BME280;11142;49.930;8.606;2023-07-09T20:08:20;100160.34;;;28.94;65.49